sensor_id;sensor_type;location;lat;lon;timestamp;temperature;humidity
21123;DHT22;10719;48.130;11.630;2023-04-24T00:02:14;9.90;99.90
21123;DHT22;10719;48.130;11.630;2023-04-24T00:04:41;9.90;99.90
21123;DHT22;10719;48.130;11.630;2023-04-24T00:07:10;9.80;99.90
21123;DHT22;10719;48.130;11.630;2023-04-24T00:09:36;9.80;99.90
21123;DHT22;10719;48.130;11.630;2023-04-24T00:12:02;9.80;99.90
21123;DHT22;10719;48.130;11.630;2023-04-24T00:14:33;9.70;99.90
21123;DHT22;10719;48.130;11.630;2023-04-24T00:17:00;9.70;99.90
21123;DHT22;10719;48.130;11.630;2023-04-24T00:19:25;9.70;99.90
21123;DHT22;10719;48.130;11.630;2023-04-24T00:21:51;9.60;99.90
21123;DHT22;10719;48.130;11.630;2023-04-24T00:24:17;9.60;99.90
21123;DHT22;10719;48.130;11.630;2023-04-24T00:26:43;9.60;99.90
21123;DHT22;10719;48.130;11.630;2023-04-24T00:29:09;9.60;99.90
21123;DHT22;10719;48.130;11.630;2023-04-24T00:31:34;9.60;99.90
21123;DHT22;10719;48.130;11.630;2023-04-24T00:34:01;9.60;99.90
21123;DHT22;10719;48.130;11.630;2023-04-24T00:36:27;9.50;99.90
21123;DHT22;10719;48.130;11.630;2023-04-24T00:38:53;9.50;99.90
21123;DHT22;10719;48.130;11.630;2023-04-24T00:41:19;9.40;99.90
21123;DHT22;10719;48.130;11.630;2023-04-24T00:43:46;9.40;99.90
21123;DHT22;10719;48.130;11.630;2023-04-24T00:46:12;9.50;99.90
21123;DHT22;10719;48.130;11.630;2023-04-24T00:48:39;9.40;99.90
21123;DHT22;10719;48.130;11.630;2023-04-24T00:51:05;9.50;99.90
21123;DHT22;10719;48.130;11.630;2023-04-24T00:53:31;9.50;99.90
21123;DHT22;10719;48.130;11.630;2023-04-24T00:55:57;9.50;99.90
21123;DHT22;10719;48.130;11.630;2023-04-24T00:58:23;9.40;99.90
21123;DHT22;10719;48.130;11.630;2023-04-24T01:00:50;9.40;99.90
21123;DHT22;10719;48.130;11.630;2023-04-24T01:03:20;9.50;99.90
21123;DHT22;10719;48.130;11.630;2023-04-24T01:05:47;9.50;99.90
21123;DHT22;10719;48.130;11.630;2023-04-24T01:08:13;9.40;99.90
21123;DHT22;10719;48.130;11.630;2023-04-24T01:10:41;9.40;99.90
21123;DHT22;10719;48.130;11.630;2023-04-24T01:13:08;9.40;99.90
21123;DHT22;10719;48.130;11.630;2023-04-24T01:15:34;9.40;99.90
21123;DHT22;10719;48.130;11.630;2023-04-24T01:18:00;9.40;99.90
21123;DHT22;10719;48.130;11.630;2023-04-24T01:20:26;9.40;99.90
21123;DHT22;10719;48.130;11.630;2023-04-24T01:22:52;9.40;99.90
21123;DHT22;10719;48.130;11.630;2023-04-24T01:25:18;9.40;99.90
21123;DHT22;10719;48.130;11.630;2023-04-24T01:27:44;9.40;99.90
21123;DHT22;10719;48.130;11.630;2023-04-24T01:30:10;9.40;99.90
21123;DHT22;10719;48.130;11.630;2023-04-24T01:32:37;9.40;99.90
21123;DHT22;10719;48.130;11.630;2023-04-24T01:35:03;9.40;99.90
21123;DHT22;10719;48.130;11.630;2023-04-24T01:37:29;9.40;99.90
21123;DHT22;10719;48.130;11.630;2023-04-24T01:39:55;9.40;99.90
21123;DHT22;10719;48.130;11.630;2023-04-24T01:42:21;9.40;99.90
21123;DHT22;10719;48.130;11.630;2023-04-24T01:44:47;9.30;99.90
21123;DHT22;10719;48.130;11.630;2023-04-24T01:47:12;9.40;99.90
21123;DHT22;10719;48.130;11.630;2023-04-24T01:49:39;9.30;99.90
21123;DHT22;10719;48.130;11.630;2023-04-24T01:52:05;9.30;99.90
21123;DHT22;10719;48.130;11.630;2023-04-24T01:54:30;9.30;99.90
21123;DHT22;10719;48.130;11.630;2023-04-24T01:56:56;9.30;99.90
21123;DHT22;10719;48.130;11.630;2023-04-24T01:59:23;9.30;99.90
21123;DHT22;10719;48.130;11.630;2023-04-24T02:01:50;9.20;99.90
21123;DHT22;10719;48.130;11.630;2023-04-24T02:04:16;9.20;99.90
21123;DHT22;10719;48.130;11.630;2023-04-24T02:06:41;9.20;99.90
21123;DHT22;10719;48.130;11.630;2023-04-24T02:09:07;9.30;99.90
21123;DHT22;10719;48.130;11.630;2023-04-24T02:11:33;9.20;99.90
21123;DHT22;10719;48.130;11.630;2023-04-24T02:13:58;9.20;99.90
21123;DHT22;10719;48.130;11.630;2023-04-24T02:16:25;9.30;99.90
21123;DHT22;10719;48.130;11.630;2023-04-24T02:18:51;9.20;99.90
21123;DHT22;10719;48.130;11.630;2023-04-24T02:21:16;9.20;99.90
21123;DHT22;10719;48.130;11.630;2023-04-24T02:23:42;9.10;99.90
21123;DHT22;10719;48.130;11.630;2023-04-24T02:26:08;9.10;99.90
21123;DHT22;10719;48.130;11.630;2023-04-24T02:28:33;9.20;99.90
21123;DHT22;10719;48.130;11.630;2023-04-24T02:30:59;9.10;99.90
21123;DHT22;10719;48.130;11.630;2023-04-24T02:33:25;9.10;99.90
21123;DHT22;10719;48.130;11.630;2023-04-24T02:35:51;9.10;99.90
21123;DHT22;10719;48.130;11.630;2023-04-24T02:38:16;9.20;99.90
21123;DHT22;10719;48.130;11.630;2023-04-24T02:40:42;9.10;99.90
21123;DHT22;10719;48.130;11.630;2023-04-24T02:43:08;9.10;99.90
21123;DHT22;10719;48.130;11.630;2023-04-24T02:45:33;9.10;99.90
21123;DHT22;10719;48.130;11.630;2023-04-24T02:48:00;9.20;99.90
21123;DHT22;10719;48.130;11.630;2023-04-24T02:50:25;9.10;99.90
21123;DHT22;10719;48.130;11.630;2023-04-24T02:52:51;9.20;99.90
21123;DHT22;10719;48.130;11.630;2023-04-24T02:55:16;9.10;99.90
21123;DHT22;10719;48.130;11.630;2023-04-24T02:57:42;9.10;99.90
21123;DHT22;10719;48.130;11.630;2023-04-24T03:00:08;9.00;99.90
21123;DHT22;10719;48.130;11.630;2023-04-24T03:02:34;9.00;99.90
21123;DHT22;10719;48.130;11.630;2023-04-24T03:05:00;9.00;99.90
21123;DHT22;10719;48.130;11.630;2023-04-24T03:07:25;9.00;99.90
21123;DHT22;10719;48.130;11.630;2023-04-24T03:09:51;9.00;99.90
21123;DHT22;10719;48.130;11.630;2023-04-24T03:12:16;8.90;99.90
21123;DHT22;10719;48.130;11.630;2023-04-24T03:14:43;8.90;99.90
21123;DHT22;10719;48.130;11.630;2023-04-24T03:17:09;8.90;99.90
21123;DHT22;10719;48.130;11.630;2023-04-24T03:19:34;8.90;99.90
21123;DHT22;10719;48.130;11.630;2023-04-24T03:22:02;8.90;99.90
21123;DHT22;10719;48.130;11.630;2023-04-24T03:24:28;8.90;99.90
21123;DHT22;10719;48.130;11.630;2023-04-24T03:26:53;8.80;99.90
21123;DHT22;10719;48.130;11.630;2023-04-24T03:29:19;8.80;99.90
21123;DHT22;10719;48.130;11.630;2023-04-24T03:31:45;8.80;99.90
21123;DHT22;10719;48.130;11.630;2023-04-24T03:34:10;8.80;99.90
21123;DHT22;10719;48.130;11.630;2023-04-24T03:36:36;8.70;99.90
21123;DHT22;10719;48.130;11.630;2023-04-24T03:39:01;8.80;99.90
21123;DHT22;10719;48.130;11.630;2023-04-24T03:41:27;8.80;99.90
21123;DHT22;10719;48.130;11.630;2023-04-24T03:43:53;8.80;99.90
21123;DHT22;10719;48.130;11.630;2023-04-24T03:46:18;8.70;99.90
21123;DHT22;10719;48.130;11.630;2023-04-24T03:48:44;8.70;99.90
21123;DHT22;10719;48.130;11.630;2023-04-24T03:51:09;8.70;99.90
21123;DHT22;10719;48.130;11.630;2023-04-24T03:53:35;8.60;99.90
21123;DHT22;10719;48.130;11.630;2023-04-24T03:56:00;8.70;99.90
21123;DHT22;10719;48.130;11.630;2023-04-24T03:58:26;8.60;99.90
21123;DHT22;10719;48.130;11.630;2023-04-24T04:00:52;8.60;99.90
21123;DHT22;10719;48.130;11.630;2023-04-24T04:03:17;8.70;99.90
21123;DHT22;10719;48.130;11.630;2023-04-24T04:05:43;8.70;99.90
21123;DHT22;10719;48.130;11.630;2023-04-24T04:08:08;8.70;99.90
21123;DHT22;10719;48.130;11.630;2023-04-24T04:10:34;8.60;99.90
21123;DHT22;10719;48.130;11.630;2023-04-24T04:13:00;8.60;99.90
21123;DHT22;10719;48.130;11.630;2023-04-24T04:15:25;8.60;99.90
21123;DHT22;10719;48.130;11.630;2023-04-24T04:17:51;8.60;99.90
21123;DHT22;10719;48.130;11.630;2023-04-24T04:20:16;8.60;99.90
21123;DHT22;10719;48.130;11.630;2023-04-24T04:22:42;8.60;99.90
21123;DHT22;10719;48.130;11.630;2023-04-24T04:25:08;8.70;99.90
21123;DHT22;10719;48.130;11.630;2023-04-24T04:27:34;8.60;99.90
21123;DHT22;10719;48.130;11.630;2023-04-24T04:30:01;8.60;99.90
21123;DHT22;10719;48.130;11.630;2023-04-24T04:32:32;8.60;99.90
21123;DHT22;10719;48.130;11.630;2023-04-24T04:34:59;8.50;99.90
21123;DHT22;10719;48.130;11.630;2023-04-24T04:37:29;8.50;99.90
21123;DHT22;10719;48.130;11.630;2023-04-24T04:39:54;8.50;99.90
21123;DHT22;10719;48.130;11.630;2023-04-24T04:42:20;8.50;99.90
21123;DHT22;10719;48.130;11.630;2023-04-24T04:44:46;8.50;99.90
21123;DHT22;10719;48.130;11.630;2023-04-24T04:47:12;8.60;99.90
21123;DHT22;10719;48.130;11.630;2023-04-24T04:49:38;8.60;99.90
21123;DHT22;10719;48.130;11.630;2023-04-24T04:52:04;8.50;99.90
21123;DHT22;10719;48.130;11.630;2023-04-24T04:54:29;8.50;99.90
21123;DHT22;10719;48.130;11.630;2023-04-24T04:56:55;8.50;99.90
21123;DHT22;10719;48.130;11.630;2023-04-24T04:59:21;8.60;99.90
21123;DHT22;10719;48.130;11.630;2023-04-24T05:01:46;8.60;99.90
21123;DHT22;10719;48.130;11.630;2023-04-24T05:04:12;8.70;99.90
21123;DHT22;10719;48.130;11.630;2023-04-24T05:06:37;8.70;99.90
21123;DHT22;10719;48.130;11.630;2023-04-24T05:09:03;8.70;99.90
21123;DHT22;10719;48.130;11.630;2023-04-24T05:11:29;8.70;99.90
21123;DHT22;10719;48.130;11.630;2023-04-24T05:13:55;8.80;99.90
21123;DHT22;10719;48.130;11.630;2023-04-24T05:16:21;8.80;99.90
21123;DHT22;10719;48.130;11.630;2023-04-24T05:18:46;8.80;99.90
21123;DHT22;10719;48.130;11.630;2023-04-24T05:21:12;8.80;99.90
21123;DHT22;10719;48.130;11.630;2023-04-24T05:23:38;8.80;99.90
21123;DHT22;10719;48.130;11.630;2023-04-24T05:26:03;8.80;99.90
21123;DHT22;10719;48.130;11.630;2023-04-24T05:28:29;8.80;99.90
21123;DHT22;10719;48.130;11.630;2023-04-24T05:30:55;8.90;99.90
21123;DHT22;10719;48.130;11.630;2023-04-24T05:33:21;8.90;99.90
21123;DHT22;10719;48.130;11.630;2023-04-24T05:35:47;8.90;99.90
21123;DHT22;10719;48.130;11.630;2023-04-24T05:38:14;9.00;99.90
21123;DHT22;10719;48.130;11.630;2023-04-24T05:40:40;9.00;99.90
21123;DHT22;10719;48.130;11.630;2023-04-24T05:43:05;9.00;99.90
21123;DHT22;10719;48.130;11.630;2023-04-24T05:45:31;9.10;99.90
21123;DHT22;10719;48.130;11.630;2023-04-24T05:47:57;9.10;99.90
21123;DHT22;10719;48.130;11.630;2023-04-24T05:50:22;9.10;99.90
21123;DHT22;10719;48.130;11.630;2023-04-24T05:52:48;9.10;99.90
21123;DHT22;10719;48.130;11.630;2023-04-24T05:55:14;9.10;99.90
21123;DHT22;10719;48.130;11.630;2023-04-24T05:57:42;9.10;99.90
21123;DHT22;10719;48.130;11.630;2023-04-24T06:00:09;9.10;99.90
21123;DHT22;10719;48.130;11.630;2023-04-24T06:02:37;9.10;99.90
21123;DHT22;10719;48.130;11.630;2023-04-24T06:05:03;9.20;99.90
21123;DHT22;10719;48.130;11.630;2023-04-24T06:07:30;9.30;99.90
21123;DHT22;10719;48.130;11.630;2023-04-24T06:09:56;9.30;99.90
21123;DHT22;10719;48.130;11.630;2023-04-24T06:12:22;9.40;99.90
21123;DHT22;10719;48.130;11.630;2023-04-24T06:14:48;9.50;99.90
21123;DHT22;10719;48.130;11.630;2023-04-24T06:17:14;9.50;99.90
21123;DHT22;10719;48.130;11.630;2023-04-24T06:19:39;9.60;99.90
21123;DHT22;10719;48.130;11.630;2023-04-24T06:22:05;9.60;99.90
21123;DHT22;10719;48.130;11.630;2023-04-24T06:24:31;9.70;99.90
21123;DHT22;10719;48.130;11.630;2023-04-24T06:26:57;9.80;99.90
21123;DHT22;10719;48.130;11.630;2023-04-24T06:29:24;9.80;99.90
21123;DHT22;10719;48.130;11.630;2023-04-24T06:31:49;9.80;99.90
21123;DHT22;10719;48.130;11.630;2023-04-24T06:34:15;9.80;99.90
21123;DHT22;10719;48.130;11.630;2023-04-24T06:36:41;9.80;99.90
21123;DHT22;10719;48.130;11.630;2023-04-24T06:39:07;9.90;99.90
21123;DHT22;10719;48.130;11.630;2023-04-24T06:41:32;9.90;99.90
21123;DHT22;10719;48.130;11.630;2023-04-24T06:43:58;10.00;99.90
21123;DHT22;10719;48.130;11.630;2023-04-24T06:46:23;9.90;99.90
21123;DHT22;10719;48.130;11.630;2023-04-24T06:48:52;10.00;99.90
21123;DHT22;10719;48.130;11.630;2023-04-24T06:51:18;10.10;99.90
21123;DHT22;10719;48.130;11.630;2023-04-24T06:53:43;10.20;99.90
21123;DHT22;10719;48.130;11.630;2023-04-24T06:56:09;10.20;99.90
21123;DHT22;10719;48.130;11.630;2023-04-24T06:58:35;10.20;99.90
21123;DHT22;10719;48.130;11.630;2023-04-24T07:01:01;10.30;99.90
21123;DHT22;10719;48.130;11.630;2023-04-24T07:03:26;10.40;99.90
21123;DHT22;10719;48.130;11.630;2023-04-24T07:05:52;10.50;99.90
21123;DHT22;10719;48.130;11.630;2023-04-24T07:08:18;10.50;99.90
21123;DHT22;10719;48.130;11.630;2023-04-24T07:10:45;10.60;99.90
21123;DHT22;10719;48.130;11.630;2023-04-24T07:13:11;10.70;99.90
21123;DHT22;10719;48.130;11.630;2023-04-24T07:15:37;10.70;99.90
21123;DHT22;10719;48.130;11.630;2023-04-24T07:18:02;10.70;99.90
21123;DHT22;10719;48.130;11.630;2023-04-24T07:20:28;10.80;99.90
21123;DHT22;10719;48.130;11.630;2023-04-24T07:22:54;10.80;99.90
21123;DHT22;10719;48.130;11.630;2023-04-24T07:25:20;10.80;99.90
21123;DHT22;10719;48.130;11.630;2023-04-24T07:27:45;10.80;99.90
21123;DHT22;10719;48.130;11.630;2023-04-24T07:30:11;10.80;99.90
21123;DHT22;10719;48.130;11.630;2023-04-24T07:32:37;10.90;99.90
21123;DHT22;10719;48.130;11.630;2023-04-24T07:35:02;11.20;99.90
21123;DHT22;10719;48.130;11.630;2023-04-24T07:37:28;11.40;99.90
21123;DHT22;10719;48.130;11.630;2023-04-24T07:39:55;11.60;99.90
21123;DHT22;10719;48.130;11.630;2023-04-24T07:42:20;11.60;99.90
21123;DHT22;10719;48.130;11.630;2023-04-24T07:44:46;11.50;99.90
21123;DHT22;10719;48.130;11.630;2023-04-24T07:47:13;11.30;99.90
21123;DHT22;10719;48.130;11.630;2023-04-24T07:49:41;11.00;99.90
21123;DHT22;10719;48.130;11.630;2023-04-24T07:52:07;11.00;99.90
21123;DHT22;10719;48.130;11.630;2023-04-24T07:54:32;10.90;99.90
21123;DHT22;10719;48.130;11.630;2023-04-24T07:56:58;10.90;99.90
21123;DHT22;10719;48.130;11.630;2023-04-24T07:59:24;10.90;99.90
21123;DHT22;10719;48.130;11.630;2023-04-24T08:01:49;11.00;99.90
21123;DHT22;10719;48.130;11.630;2023-04-24T08:04:15;11.00;99.90
21123;DHT22;10719;48.130;11.630;2023-04-24T08:06:41;11.10;99.90
21123;DHT22;10719;48.130;11.630;2023-04-24T08:09:06;11.10;99.90
21123;DHT22;10719;48.130;11.630;2023-04-24T08:11:32;11.10;99.90
21123;DHT22;10719;48.130;11.630;2023-04-24T08:13:58;11.10;99.90
21123;DHT22;10719;48.130;11.630;2023-04-24T08:16:23;11.20;99.90
21123;DHT22;10719;48.130;11.630;2023-04-24T08:18:50;11.40;99.90
21123;DHT22;10719;48.130;11.630;2023-04-24T08:21:15;11.40;99.90
21123;DHT22;10719;48.130;11.630;2023-04-24T08:23:44;11.50;99.90
21123;DHT22;10719;48.130;11.630;2023-04-24T08:26:11;11.50;99.90
21123;DHT22;10719;48.130;11.630;2023-04-24T08:28:37;11.40;99.90
21123;DHT22;10719;48.130;11.630;2023-04-24T08:31:02;11.20;99.90
21123;DHT22;10719;48.130;11.630;2023-04-24T08:33:28;10.90;99.90
21123;DHT22;10719;48.130;11.630;2023-04-24T08:36:00;10.80;99.90
21123;DHT22;10719;48.130;11.630;2023-04-24T08:38:26;10.90;99.90
21123;DHT22;10719;48.130;11.630;2023-04-24T08:40:52;10.60;99.90
21123;DHT22;10719;48.130;11.630;2023-04-24T08:43:18;10.30;99.90
21123;DHT22;10719;48.130;11.630;2023-04-24T08:45:47;10.10;99.90
21123;DHT22;10719;48.130;11.630;2023-04-24T08:48:13;9.90;99.90
21123;DHT22;10719;48.130;11.630;2023-04-24T08:50:40;9.60;99.90
21123;DHT22;10719;48.130;11.630;2023-04-24T08:53:08;9.60;99.90
21123;DHT22;10719;48.130;11.630;2023-04-24T08:55:34;9.60;99.90
21123;DHT22;10719;48.130;11.630;2023-04-24T08:58:02;9.80;99.90
21123;DHT22;10719;48.130;11.630;2023-04-24T09:00:28;9.90;99.90
21123;DHT22;10719;48.130;11.630;2023-04-24T09:02:55;10.10;99.90
21123;DHT22;10719;48.130;11.630;2023-04-24T09:05:21;10.10;99.90
21123;DHT22;10719;48.130;11.630;2023-04-24T09:07:54;9.90;99.90
21123;DHT22;10719;48.130;11.630;2023-04-24T09:10:22;9.80;99.90
21123;DHT22;10719;48.130;11.630;2023-04-24T09:12:47;9.80;99.90
21123;DHT22;10719;48.130;11.630;2023-04-24T09:15:15;9.60;99.90
21123;DHT22;10719;48.130;11.630;2023-04-24T09:17:41;9.80;99.90
21123;DHT22;10719;48.130;11.630;2023-04-24T09:20:07;9.90;99.90
21123;DHT22;10719;48.130;11.630;2023-04-24T09:22:32;9.90;99.90
21123;DHT22;10719;48.130;11.630;2023-04-24T09:25:09;10.10;99.90
21123;DHT22;10719;48.130;11.630;2023-04-24T09:27:42;10.10;99.90
21123;DHT22;10719;48.130;11.630;2023-04-24T09:30:08;10.10;99.90
21123;DHT22;10719;48.130;11.630;2023-04-24T09:32:34;10.30;99.90
21123;DHT22;10719;48.130;11.630;2023-04-24T09:35:13;10.50;99.90
21123;DHT22;10719;48.130;11.630;2023-04-24T09:37:46;10.50;99.90
21123;DHT22;10719;48.130;11.630;2023-04-24T09:40:20;10.60;99.90
21123;DHT22;10719;48.130;11.630;2023-04-24T09:42:53;10.70;99.90
21123;DHT22;10719;48.130;11.630;2023-04-24T09:45:20;11.20;99.90
21123;DHT22;10719;48.130;11.630;2023-04-24T09:47:46;11.20;99.90
21123;DHT22;10719;48.130;11.630;2023-04-24T09:50:13;11.30;99.90
21123;DHT22;10719;48.130;11.630;2023-04-24T09:52:46;11.30;99.90
21123;DHT22;10719;48.130;11.630;2023-04-24T09:55:19;11.50;99.90
21123;DHT22;10719;48.130;11.630;2023-04-24T10:00:24;11.50;99.90
21123;DHT22;10719;48.130;11.630;2023-04-24T10:03:00;11.80;99.90
21123;DHT22;10719;48.130;11.630;2023-04-24T10:05:33;11.90;99.90
21123;DHT22;10719;48.130;11.630;2023-04-24T10:08:07;12.20;99.90
21123;DHT22;10719;48.130;11.630;2023-04-24T10:10:38;12.10;99.90
21123;DHT22;10719;48.130;11.630;2023-04-24T10:13:04;11.90;99.90
21123;DHT22;10719;48.130;11.630;2023-04-24T10:15:30;11.80;99.90
21123;DHT22;10719;48.130;11.630;2023-04-24T10:17:58;12.00;99.90
21123;DHT22;10719;48.130;11.630;2023-04-24T10:20:26;12.10;99.90
21123;DHT22;10719;48.130;11.630;2023-04-24T10:22:55;12.10;99.90
21123;DHT22;10719;48.130;11.630;2023-04-24T10:25:29;12.00;99.90
21123;DHT22;10719;48.130;11.630;2023-04-24T10:27:56;12.00;99.90
21123;DHT22;10719;48.130;11.630;2023-04-24T10:30:29;11.90;99.90
21123;DHT22;10719;48.130;11.630;2023-04-24T10:32:56;11.90;99.90
21123;DHT22;10719;48.130;11.630;2023-04-24T10:35:22;12.00;99.90
21123;DHT22;10719;48.130;11.630;2023-04-24T10:38:26;12.40;99.90
21123;DHT22;10719;48.130;11.630;2023-04-24T10:41:13;12.80;99.90
21123;DHT22;10719;48.130;11.630;2023-04-24T10:43:45;12.70;99.90
21123;DHT22;10719;48.130;11.630;2023-04-24T10:46:18;12.30;99.90
21123;DHT22;10719;48.130;11.630;2023-04-24T10:48:54;12.20;99.90
21123;DHT22;10719;48.130;11.630;2023-04-24T10:51:23;12.10;99.90
21123;DHT22;10719;48.130;11.630;2023-04-24T10:53:50;12.00;99.90
21123;DHT22;10719;48.130;11.630;2023-04-24T10:56:17;11.90;99.90
21123;DHT22;10719;48.130;11.630;2023-04-24T10:58:53;11.70;99.90
21123;DHT22;10719;48.130;11.630;2023-04-24T11:01:27;11.40;99.90
21123;DHT22;10719;48.130;11.630;2023-04-24T11:03:57;10.20;99.90
21123;DHT22;10719;48.130;11.630;2023-04-24T11:06:30;9.70;99.90
21123;DHT22;10719;48.130;11.630;2023-04-24T11:09:03;9.40;99.90
21123;DHT22;10719;48.130;11.630;2023-04-24T11:11:29;9.50;99.90
21123;DHT22;10719;48.130;11.630;2023-04-24T11:16:29;10.30;99.90
21123;DHT22;10719;48.130;11.630;2023-04-24T11:19:10;10.70;99.90
21123;DHT22;10719;48.130;11.630;2023-04-24T11:21:44;11.10;99.90
21123;DHT22;10719;48.130;11.630;2023-04-24T11:29:48;12.70;99.90
21123;DHT22;10719;48.130;11.630;2023-04-24T11:34:49;14.20;99.90
21123;DHT22;10719;48.130;11.630;2023-04-24T11:37:15;14.20;99.90
21123;DHT22;10719;48.130;11.630;2023-04-24T11:39:41;14.30;99.90
21123;DHT22;10719;48.130;11.630;2023-04-24T11:42:07;14.70;99.90
21123;DHT22;10719;48.130;11.630;2023-04-24T11:44:34;14.50;99.90
21123;DHT22;10719;48.130;11.630;2023-04-24T11:47:04;14.00;99.90
21123;DHT22;10719;48.130;11.630;2023-04-24T11:49:29;13.70;99.90
21123;DHT22;10719;48.130;11.630;2023-04-24T11:51:55;13.30;99.90
21123;DHT22;10719;48.130;11.630;2023-04-24T11:54:21;12.30;99.90
21123;DHT22;10719;48.130;11.630;2023-04-24T11:56:48;12.00;99.90
21123;DHT22;10719;48.130;11.630;2023-04-24T11:59:14;11.70;99.90
21123;DHT22;10719;48.130;11.630;2023-04-24T12:01:46;11.70;99.90
21123;DHT22;10719;48.130;11.630;2023-04-24T12:04:12;12.00;99.90
21123;DHT22;10719;48.130;11.630;2023-04-24T12:06:38;12.40;99.90
21123;DHT22;10719;48.130;11.630;2023-04-24T12:09:04;12.70;99.90
21123;DHT22;10719;48.130;11.630;2023-04-24T12:11:30;12.50;99.90
21123;DHT22;10719;48.130;11.630;2023-04-24T12:13:55;12.50;99.90
21123;DHT22;10719;48.130;11.630;2023-04-24T12:16:23;12.60;99.90
21123;DHT22;10719;48.130;11.630;2023-04-24T12:18:51;13.10;99.90
21123;DHT22;10719;48.130;11.630;2023-04-24T12:21:21;13.50;99.90
21123;DHT22;10719;48.130;11.630;2023-04-24T12:23:48;13.70;99.90
21123;DHT22;10719;48.130;11.630;2023-04-24T12:26:18;13.50;99.90
21123;DHT22;10719;48.130;11.630;2023-04-24T12:28:47;13.60;99.90
21123;DHT22;10719;48.130;11.630;2023-04-24T12:31:13;13.50;99.90
21123;DHT22;10719;48.130;11.630;2023-04-24T12:33:39;14.00;99.90
21123;DHT22;10719;48.130;11.630;2023-04-24T12:36:04;14.40;99.90
21123;DHT22;10719;48.130;11.630;2023-04-24T12:38:31;14.70;99.90
21123;DHT22;10719;48.130;11.630;2023-04-24T12:41:10;14.50;99.90
21123;DHT22;10719;48.130;11.630;2023-04-24T12:43:36;15.10;99.90
21123;DHT22;10719;48.130;11.630;2023-04-24T12:46:02;14.80;99.90
21123;DHT22;10719;48.130;11.630;2023-04-24T12:48:28;14.80;99.90
21123;DHT22;10719;48.130;11.630;2023-04-24T12:50:55;14.80;99.90
21123;DHT22;10719;48.130;11.630;2023-04-24T12:53:22;14.70;99.90
21123;DHT22;10719;48.130;11.630;2023-04-24T12:55:47;15.30;99.90
21123;DHT22;10719;48.130;11.630;2023-04-24T12:58:19;15.40;99.90
21123;DHT22;10719;48.130;11.630;2023-04-24T13:00:46;14.50;99.90
21123;DHT22;10719;48.130;11.630;2023-04-24T13:03:12;14.10;99.90
21123;DHT22;10719;48.130;11.630;2023-04-24T13:05:37;14.50;99.90
21123;DHT22;10719;48.130;11.630;2023-04-24T13:08:03;14.60;99.90
21123;DHT22;10719;48.130;11.630;2023-04-24T13:10:29;14.90;99.90
21123;DHT22;10719;48.130;11.630;2023-04-24T13:12:55;15.70;99.90
21123;DHT22;10719;48.130;11.630;2023-04-24T13:15:21;16.30;99.90
21123;DHT22;10719;48.130;11.630;2023-04-24T13:17:46;16.40;99.90
21123;DHT22;10719;48.130;11.630;2023-04-24T13:20:12;15.50;99.90
21123;DHT22;10719;48.130;11.630;2023-04-24T13:22:37;14.60;99.90
21123;DHT22;10719;48.130;11.630;2023-04-24T13:25:03;13.80;99.90
21123;DHT22;10719;48.130;11.630;2023-04-24T13:27:31;13.50;99.90
21123;DHT22;10719;48.130;11.630;2023-04-24T13:29:58;13.00;99.90
21123;DHT22;10719;48.130;11.630;2023-04-24T13:32:23;12.90;99.90
21123;DHT22;10719;48.130;11.630;2023-04-24T13:34:49;12.90;99.90
21123;DHT22;10719;48.130;11.630;2023-04-24T13:37:15;13.00;99.90
21123;DHT22;10719;48.130;11.630;2023-04-24T13:39:41;13.40;99.90
21123;DHT22;10719;48.130;11.630;2023-04-24T13:42:07;15.00;99.90
21123;DHT22;10719;48.130;11.630;2023-04-24T13:44:32;16.40;99.90
21123;DHT22;10719;48.130;11.630;2023-04-24T13:46:58;16.60;99.90
21123;DHT22;10719;48.130;11.630;2023-04-24T13:49:25;15.50;99.90
21123;DHT22;10719;48.130;11.630;2023-04-24T13:51:51;14.80;99.90
21123;DHT22;10719;48.130;11.630;2023-04-24T13:54:17;14.10;99.90
21123;DHT22;10719;48.130;11.630;2023-04-24T13:56:43;13.80;99.90
21123;DHT22;10719;48.130;11.630;2023-04-24T13:59:09;13.80;99.90
21123;DHT22;10719;48.130;11.630;2023-04-24T14:01:35;13.40;99.90
21123;DHT22;10719;48.130;11.630;2023-04-24T14:04:01;13.30;99.90
21123;DHT22;10719;48.130;11.630;2023-04-24T14:06:27;13.30;99.90
21123;DHT22;10719;48.130;11.630;2023-04-24T14:08:52;13.30;99.90
21123;DHT22;10719;48.130;11.630;2023-04-24T14:11:18;13.20;99.90
21123;DHT22;10719;48.130;11.630;2023-04-24T14:13:45;12.90;99.90
21123;DHT22;10719;48.130;11.630;2023-04-24T14:16:11;12.90;99.90
21123;DHT22;10719;48.130;11.630;2023-04-24T14:18:36;14.40;99.90
21123;DHT22;10719;48.130;11.630;2023-04-24T14:21:05;15.10;99.90
21123;DHT22;10719;48.130;11.630;2023-04-24T14:23:31;14.70;99.90
21123;DHT22;10719;48.130;11.630;2023-04-24T14:25:57;14.50;99.90
21123;DHT22;10719;48.130;11.630;2023-04-24T14:28:24;14.50;99.90
21123;DHT22;10719;48.130;11.630;2023-04-24T14:30:50;14.90;99.90
21123;DHT22;10719;48.130;11.630;2023-04-24T14:33:16;16.20;99.90
21123;DHT22;10719;48.130;11.630;2023-04-24T14:35:42;16.70;99.90
21123;DHT22;10719;48.130;11.630;2023-04-24T14:38:08;16.80;99.90
21123;DHT22;10719;48.130;11.630;2023-04-24T14:40:34;17.30;99.90
21123;DHT22;10719;48.130;11.630;2023-04-24T14:43:00;17.80;99.90
21123;DHT22;10719;48.130;11.630;2023-04-24T14:45:26;17.00;99.90
21123;DHT22;10719;48.130;11.630;2023-04-24T14:47:52;16.60;99.90
21123;DHT22;10719;48.130;11.630;2023-04-24T14:50:18;16.70;99.90
21123;DHT22;10719;48.130;11.630;2023-04-24T14:52:44;17.60;99.90
21123;DHT22;10719;48.130;11.630;2023-04-24T14:55:10;16.90;99.90
21123;DHT22;10719;48.130;11.630;2023-04-24T14:57:36;16.30;99.90
21123;DHT22;10719;48.130;11.630;2023-04-24T15:00:03;15.70;99.90
21123;DHT22;10719;48.130;11.630;2023-04-24T15:02:30;15.10;99.90
21123;DHT22;10719;48.130;11.630;2023-04-24T15:04:56;15.30;99.90
21123;DHT22;10719;48.130;11.630;2023-04-24T15:07:22;15.40;99.90
21123;DHT22;10719;48.130;11.630;2023-04-24T15:09:47;15.80;99.90
21123;DHT22;10719;48.130;11.630;2023-04-24T15:12:13;16.10;99.90
21123;DHT22;10719;48.130;11.630;2023-04-24T15:14:39;15.90;99.90
21123;DHT22;10719;48.130;11.630;2023-04-24T15:17:04;15.40;99.90
21123;DHT22;10719;48.130;11.630;2023-04-24T15:19:31;14.60;99.90
21123;DHT22;10719;48.130;11.630;2023-04-24T15:21:56;14.50;99.90
21123;DHT22;10719;48.130;11.630;2023-04-24T15:24:22;14.10;99.90
21123;DHT22;10719;48.130;11.630;2023-04-24T15:26:48;13.90;99.90
21123;DHT22;10719;48.130;11.630;2023-04-24T15:29:13;13.80;99.90
21123;DHT22;10719;48.130;11.630;2023-04-24T15:31:39;13.80;99.90
21123;DHT22;10719;48.130;11.630;2023-04-24T15:34:05;13.90;99.90